Flight Track Log - Related Links

Times and Time Zones

All times are in EDT time to prevent confusion due to time zone crossing. See the UAL139 flight status page for this flight to view local times or setup timezone preferences in your user account.


Time Position Orientation Groundspeed Altitude Reporting Facility
EDT Latitude Longitude Course Direction KTS MPH feet Rate Location/Type
Thu 02:44:49 PM 39.8640 -104.6960 270° West 135 155 5,000  Level FlightAware ADS-B
Thu 02:45:47 PM 39.9150 -104.6990 357° North 208 239 6,600 1,370 Climbing FlightAware ADS-B
Thu 02:46:21 PM 39.9520 -104.7080 349° North 264 304 7,100 1,594 Climbing FlightAware ADS-B
Thu 02:46:51 PM 39.9900 -104.7170 350° North 278 320 8,300 2,419 Climbing FlightAware ADS-B
Thu 02:47:23 PM 40.0300 -104.7270 349° North 284 327 9,600 1,563 Climbing FlightAware ADS-B
Thu 02:48:27 PM 40.1150 -104.7630 342° North 322 371 10,800 1,400 Climbing FlightAware ADS-B
Thu 02:48:53 PM 40.1520 -104.7810 340° North 333 383 11,700 938 Climbing FlightAware ADS-B
Thu 02:49:31 PM 40.2050 -104.8060 340° North 337 388 11,800 1,360 Climbing FlightAware ADS-B
Thu 02:50:08 PM 40.2580 -104.8310 340° North 342 394 13,400 2,640 Climbing FlightAware ADS-B
Thu 02:50:46 PM 40.3190 -104.8590 341° North 352 405 15,100 2,432 Climbing FlightAware ADS-B
Thu 02:51:22 PM 40.3750 -104.8850 341° North 364 419 16,400 2,250 Climbing FlightAware ADS-B
Thu 02:52:06 PM 40.4430 -104.9170 340° North 375 432 18,100 2,219 Climbing FlightAware ADS-B
Thu 02:52:35 PM 40.4930 -104.9400 341° North 384 442 19,100 2,087 Climbing FlightAware ADS-B
Thu 02:53:15 PM 40.5600 -104.9720 340° North 393 452 20,500 2,026 Climbing FlightAware ADS-B
Thu 02:53:52 PM 40.6280 -105.0030 341° North 403 464 21,700 1,973 Climbing FlightAware ADS-B
Thu 02:54:28 PM 40.6900 -105.0330 340° North 411 473 22,900 1,826 Climbing FlightAware ADS-B
Thu 02:55:24 PM 40.7880 -105.0940 335° Northwest 420 483 24,500 1,355 Climbing FlightAware ADS-B
Thu 02:56:01 PM 40.8440 -105.1570 320° Northwest 438 504 25,000 1,083 Climbing FlightAware ADS-B
Thu 02:56:36 PM 40.8990 -105.2190 320° Northwest 448 516 25,800 1,538 Climbing FlightAware ADS-B
Thu 02:57:19 PM 40.9680 -105.2970 320° Northwest 455 524 27,000 1,579 Climbing FlightAware ADS-B
Thu 02:57:52 PM 41.0200 -105.3560 319° Northwest 460 529 27,800 1,385 Climbing FlightAware ADS-B
Thu 02:58:24 PM 41.0710 -105.4150 319° Northwest 465 535 28,500 1,317 Climbing FlightAware ADS-B
Thu 02:59:14 PM 41.1500 -105.5050 319° Northwest 472 543 29,600 1,297 Climbing FlightAware ADS-B
Thu 02:59:38 PM 41.1940 -105.5560 319° Northwest 478 550 30,100 1,116 Climbing FlightAware ADS-B
Thu 03:00:40 PM 41.2990 -105.6760 319° Northwest 488 562 31,200 1,109 Climbing FlightAware ADS-B
Thu 03:01:10 PM 41.3470 -105.7380 316° Northwest 492 566 31,800 1,075 Climbing FlightAware ADS-B
Thu 03:01:47 PM 41.4000 -105.8180 311° West 495 570 32,400 1,358 Climbing FlightAware ADS-B
Thu 03:02:56 PM 41.5040 -105.9820 310° West 487 560 34,200 1,484 Climbing FlightAware ADS-B
Thu 03:03:20 PM 41.5380 -106.0340 311° West 486 559 34,700 1,167 Climbing FlightAware ADS-B
Thu 03:04:08 PM 41.6090 -106.1470 310° West 485 558 35,600 709 Climbing FlightAware ADS-B
Thu 03:05:10 PM 41.6980 -106.2870 310° West 483 556 36,000 231 Climbing FlightAware ADS-B
Thu 03:05:52 PM 41.7570 -106.3810 310° West 483 556 36,000  Level FlightAware ADS-B
Thu 03:06:23 PM 41.7930 -106.4410 309° West 482 555 36,000  Level FlightAware ADS-B
Thu 03:07:33 PM 41.8770 -106.5800 309° West 482 555 36,000  Level FlightAware ADS-B
Thu 03:08:32 PM 41.9470 -106.6970 309° West 482 555 36,000  Level FlightAware ADS-B
Thu 03:09:09 PM 41.9910 -106.7700 309° West 482 555 36,000  Level FlightAware ADS-B
Thu 03:09:43 PM 42.0320 -106.8370 309° West 482 555 36,000  Level FlightAware ADS-B
Thu 03:10:20 PM 42.0760 -106.9110 309° West 482 555 36,000  Level FlightAware ADS-B
Thu 03:10:56 PM 42.1190 -106.9820 309° West 482 555 36,000  Level FlightAware ADS-B
Thu 03:11:32 PM 42.1620 -107.0540 309° West 482 555 36,000  Level FlightAware ADS-B
Thu 03:12:14 PM 42.2120 -107.1370 309° West 482 555 36,000  Level FlightAware ADS-B
Thu 03:12:50 PM 42.2550 -107.2090 309° West 482 555 36,000  Level FlightAware ADS-B
Thu 03:13:36 PM 42.3100 -107.3000 309° West 482 555 36,000  Level FlightAware ADS-B
Thu 03:14:12 PM 42.3530 -107.3720 309° West 482 555 36,000  Level FlightAware ADS-B
Thu 03:14:48 PM 42.3960 -107.4440 309° West 482 555 36,000  Level FlightAware ADS-B
Thu 03:15:36 PM 42.4530 -107.5400 309° West 482 555 36,000  Level FlightAware ADS-B
Thu 03:15:48 PM 42.4670 -107.5640 308° West 482 555 36,000 380 Level FlightAware ADS-B
Thu 03:16:55 PM 42.6894 -107.9053 308° West 484 557 36,500 744 Climbing Salt Lake Center
Thu 03:17:57 PM 42.7811 -108.0619 309° West 481 554 37,600 726 Climbing Salt Lake Center
Thu 03:18:59 PM 42.8583 -108.1939 309° West 472 543 38,000 194 Climbing Salt Lake Center
Thu 03:20:01 PM 42.9381 -108.3264 309° West 471 542 38,000  Level Salt Lake Center
Thu 03:21:03 PM 43.0197 -108.4686 308° West 472 543 38,000  Level Salt Lake Center
Thu 03:22:05 PM 43.1181 -108.6364 309° West 471 542 38,000  Level Salt Lake Center
Thu 03:23:07 PM 43.2003 -108.7781 309° West 473 544 38,000  Level Salt Lake Center
Thu 03:24:09 PM 43.2825 -108.9186 309° West 472 543 38,000  Level Salt Lake Center
Thu 03:25:11 PM 43.3628 -109.0625 308° West 475 547 38,000  Level Salt Lake Center
Thu 03:26:13 PM 43.4444 -109.2031 309° West 472 543 38,000  Level Salt Lake Center
Thu 03:28:17 PM 43.6111 -109.4964 308° West 475 547 38,000  Level Salt Lake Center
Thu 03:29:19 PM 43.7003 -109.6556 308° West 470 541 38,000  Level Salt Lake Center
Thu 03:30:21 PM 43.7781 -109.7947 308° West 474 545 38,000  Level Salt Lake Center
Thu 03:35:26 PM 44.1990 -110.5520 308° West 474 545 38,000  Level FlightAware ADS-B
Thu 03:36:42 PM 44.2990 -110.7370 307° West 474 545 38,000  Level FlightAware ADS-B
Thu 03:37:14 PM 44.3410 -110.8140 307° West 475 547 38,000  Level FlightAware ADS-B
Thu 03:37:47 PM 44.3850 -110.8970 307° West 475 547 38,000  Level FlightAware ADS-B
Thu 03:38:29 PM 44.4400 -110.9980 307° West 475 547 38,000  Level FlightAware ADS-B
Thu 03:39:42 PM 44.5340 -111.1740 307° West 475 547 38,000  Level FlightAware ADS-B
Thu 03:40:05 PM 44.5650 -111.2320 307° West 475 547 38,000  Level FlightAware ADS-B
Thu 03:41:05 PM 44.6430 -111.3800 307° West 475 547 38,000  Level FlightAware ADS-B
Thu 03:41:45 PM 44.6960 -111.4800 307° West 475 547 38,000  Level FlightAware ADS-B
Thu 03:42:16 PM 44.7370 -111.5580 307° West 474 545 38,000  Level FlightAware ADS-B
Thu 03:42:53 PM 44.7860 -111.6510 307° West 475 547 38,000  Level FlightAware ADS-B
Thu 03:43:28 PM 44.8320 -111.7390 306° West 476 548 38,000  Level FlightAware ADS-B
Thu 03:44:31 PM 44.9130 -111.8950 306° West 476 548 38,000  Level FlightAware ADS-B
Thu 03:45:13 PM 44.9630 -111.9910 306° West 476 548 38,000  Level FlightAware ADS-B
Thu 03:46:18 PM 45.0530 -112.1640 306° West 477 549 38,000  Level FlightAware ADS-B
Thu 03:46:57 PM 45.1010 -112.2580 306° West 477 549 38,000  Level FlightAware ADS-B
Thu 03:47:34 PM 45.1510 -112.3550 306° West 477 549 38,000  Level FlightAware ADS-B
Thu 03:48:13 PM 45.1900 -112.4350 305° West 477 549 38,000  Level FlightAware ADS-B
Thu 03:49:16 PM 45.2820 -112.6130 306° West 478 550 38,000  Level FlightAware ADS-B
Thu 03:49:55 PM 45.3310 -112.7140 305° West 478 550 38,000  Level FlightAware ADS-B
Thu 03:50:38 PM 45.3860 -112.8250 305° West 478 550 38,000  Level FlightAware ADS-B
Thu 03:51:14 PM 45.4270 -112.9080 305° West 478 550 38,000  Level FlightAware ADS-B
Thu 03:51:51 PM 45.4670 -112.9890 305° West 478 550 38,000  Level FlightAware ADS-B
Thu 03:52:18 PM 45.5110 -113.0790 305° West 479 551 38,000  Level FlightAware ADS-B
Thu 03:53:19 PM 45.5750 -113.2150 304° West 479 551 38,000  Level FlightAware ADS-B
Thu 03:53:55 PM 45.6130 -113.2950 304° West 479 551 38,000  Level FlightAware ADS-B
Thu 03:54:58 PM 45.7150 -113.4990 306° West 480 552 38,000  Level FlightAware ADS-B
Thu 03:55:37 PM 45.7630 -113.5980 305° West 480 552 38,000  Level FlightAware ADS-B
Thu 03:56:10 PM 45.7880 -113.6510 304° West 479 551 38,000  Level FlightAware ADS-B
Thu 03:57:18 PM 45.8840 -113.8520 305° West 480 552 38,000  Level FlightAware ADS-B
Thu 03:57:48 PM 45.9280 -113.9440 305° West 482 555 38,000  Level FlightAware ADS-B
Thu 03:58:50 PM 45.9940 -114.0840 304° West 482 555 38,000  Level FlightAware ADS-B
Thu 03:59:28 PM 46.0340 -114.1700 304° West 482 555 38,000  Level FlightAware ADS-B
Thu 04:00:05 PM 46.0730 -114.2540 304° West 482 555 38,000  Level FlightAware ADS-B
Thu 04:00:34 PM 46.1340 -114.3820 305° West 480 552 38,000  Level FlightAware ADS-B
Thu 04:01:12 PM 46.1730 -114.4690 303° West 480 552 38,000  Level FlightAware ADS-B
Thu 04:01:49 PM 46.2110 -114.5540 303° West 480 552 38,000  Level FlightAware ADS-B
Thu 04:02:25 PM 46.2480 -114.6360 303° West 480 552 38,000  Level FlightAware ADS-B
Thu 04:02:50 PM 46.2740 -114.6930 303° West 480 552 38,000  Level FlightAware ADS-B
Thu 04:03:24 PM 46.3090 -114.7710 303° West 480 552 38,000  Level FlightAware ADS-B
Thu 04:04:03 PM 46.3490 -114.8610 303° West 480 552 38,000  Level FlightAware ADS-B
Thu 04:04:39 PM 46.3860 -114.9430 303° West 480 552 38,000  Level FlightAware ADS-B
Thu 04:05:15 PM 46.4230 -115.0260 303° West 480 552 38,000  Level FlightAware ADS-B
Thu 04:05:52 PM 46.4610 -115.1110 303° West 480 552 38,000  Level FlightAware ADS-B
Thu 04:06:29 PM 46.4990 -115.1960 303° West 480 552 38,000  Level FlightAware ADS-B
Thu 04:07:06 PM 46.5370 -115.2810 303° West 480 552 38,000  Level FlightAware ADS-B
Thu 04:08:07 PM 46.6000 -115.4220 303° West 480 552 38,000  Level FlightAware ADS-B
Thu 04:08:46 PM 46.6400 -115.5120 303° West 480 552 38,000  Level FlightAware ADS-B
Thu 04:09:21 PM 46.6760 -115.5920 303° West 480 552 38,000  Level FlightAware ADS-B
Thu 04:10:10 PM 46.7260 -115.7050 303° West 480 552 38,000  Level FlightAware ADS-B
Thu 04:10:22 PM 46.7390 -115.7330 304° West 480 552 38,000  Level FlightAware ADS-B
Thu 04:11:24 PM 46.9242 -116.1303 304° West 483 556 38,000  Level Seattle Center
Thu 04:12:25 PM 46.9972 -116.2950 303° West 484 557 38,000  Level Seattle Center
Thu 04:13:26 PM 47.0692 -116.4625 302° West 485 558 38,000 -49 Level Seattle Center
Thu 04:14:27 PM 47.1411 -116.6281 303° West 483 556 37,900  Descending Seattle Center
Thu 04:15:28 PM 47.2139 -116.7961 303° West 486 559 38,000  Climbing Seattle Center
Thu 04:16:29 PM 47.2853 -116.9642 302° West 482 555 37,900  Descending Seattle Center
Thu 04:17:30 PM 47.3583 -117.1361 302° West 489 563 38,000  Climbing Seattle Center
Thu 04:18:31 PM 47.4311 -117.3089 302° West 487 560 37,900  Descending Seattle Center
Thu 04:24:22 PM 47.8480 -118.3290 302° West 481 554 38,000 15 Climbing FlightAware ADS-B
Thu 04:25:21 PM 47.9140 -118.4980 300° West 479 551 38,000  Level FlightAware ADS-B
Thu 04:26:30 PM 47.9910 -118.6940 300° West 480 552 38,000  Level FlightAware ADS-B
Thu 04:27:09 PM 48.0350 -118.8050 301° West 481 554 38,000  Level FlightAware ADS-B
Thu 04:27:42 PM 48.0710 -118.8990 300° West 479 551 38,000  Level FlightAware ADS-B
Thu 04:28:21 PM 48.1130 -119.0060 300° West 480 552 38,000  Level FlightAware ADS-B
Thu 04:28:59 PM 48.1570 -119.1210 300° West 479 551 38,000  Level FlightAware ADS-B
Thu 04:29:28 PM 48.1899 -119.2060 300° West 480 552 38,000  Level FlightAware ADS-B
Thu 04:30:01 PM 48.2265 -119.3010 300° West 480 552 38,000  Level FlightAware ADS-B
Thu 04:30:34 PM 48.2626 -119.3960 300° West 480 552 38,000  Level FlightAware ADS-B
Thu 04:31:05 PM 48.2966 -119.4850 300° West 480 552 38,000  Level FlightAware ADS-B
Thu 04:31:35 PM 48.3295 -119.5720 300° West 480 552 38,000  Level FlightAware ADS-B
Thu 04:32:18 PM 48.3767 -119.6960 300° West 480 552 38,000  Level FlightAware ADS-B
Thu 04:32:22 PM 48.3810 -119.7079 299° West 476 548 38,000  Level FlightAware ADS-B
Thu 04:32:49 PM 48.4097 -119.7840 300° West 481 554 38,000  Level FlightAware ADS-B
Thu 04:32:54 PM 48.4158 -119.8003 299° West 478 550 38,000  Level FlightAware ADS-B
Thu 04:33:19 PM 48.4426 -119.8720 299° West 481 554 38,000  Level FlightAware ADS-B
Thu 04:33:37 PM 48.4629 -119.9260 300° West 477 549 38,000  Level FlightAware ADS-B
Thu 04:33:50 PM 48.4763 -119.9620 299° West 480 552 38,000  Level FlightAware ADS-B
Thu 04:34:07 PM 48.4956 -120.0137 299° West 475 547 38,000  Level FlightAware ADS-B
Thu 04:34:20 PM 48.5090 -120.0500 299° West 478 550 38,000  Level FlightAware ADS-B
Thu 04:34:40 PM 48.5303 -120.1070 299° West 475 547 38,000  Level FlightAware ADS-B
Thu 04:34:58 PM 48.5502 -120.1610 299° West 478 550 38,000  Level FlightAware ADS-B
Thu 04:35:30 PM 48.5846 -120.2536 299° West 475 547 38,000  Level FlightAware ADS-B
Thu 04:35:55 PM 48.6113 -120.3260 299° West 479 551 38,000  Level FlightAware ADS-B
Thu 04:36:06 PM 48.6231 -120.3579 299° West 476 548 38,000  Level FlightAware ADS-B
Thu 04:36:26 PM 48.6450 -120.4180 299° West 480 552 38,000  Level FlightAware ADS-B
Thu 04:36:39 PM 48.6587 -120.4549 299° West 475 547 38,000  Level FlightAware ADS-B
Thu 04:36:57 PM 48.6782 -120.5080 299° West 480 552 38,000  Level FlightAware ADS-B
Thu 04:37:20 PM 48.6703 -120.4865 119° Southeast 479 551 38,000  Level FlightAware ADS-B
Thu 04:37:29 PM 48.7124 -120.6020 299° West 480 552 38,000  Level FlightAware ADS-B
Thu 04:37:55 PM 48.7398 -120.6772 299° West 477 549 38,000  Level FlightAware ADS-B
Thu 04:38:00 PM 48.7449 -120.6910 299° West 481 554 38,000  Level FlightAware ADS-B
Thu 04:38:31 PM 48.7781 -120.7830 299° West 482 555 38,000  Level FlightAware ADS-B
Thu 04:39:00 PM 48.8091 -120.8686 299° West 483 556 38,000  Level FlightAware ADS-B
Thu 04:39:02 PM 48.8119 -120.8760 300° West 483 556 38,000  Level FlightAware ADS-B
Thu 04:39:31 PM 48.8423 -120.9604 299° West 482 555 38,000  Level FlightAware ADS-B
Thu 04:39:44 PM 48.8565 -120.9990 299° West 482 555 38,000  Level FlightAware ADS-B
Thu 04:40:01 PM 48.8756 -121.0473 301° West 482 555 38,000  Level FlightAware ADS-B
Thu 04:40:10 PM 48.8872 -121.0769 301° West 478 550 38,000  Level FlightAware ADS-B
Thu 04:40:18 PM 48.8961 -121.0990 301° West 482 555 38,000  Level FlightAware ADS-B
Thu 04:40:41 PM 48.9153 -121.1488 300° West 481 554 38,000  Level FlightAware ADS-B
Thu 04:40:52 PM 48.9345 -121.1980 301° West 480 552 38,000  Level FlightAware ADS-B
Thu 04:41:13 PM 48.9573 -121.2574 300° West 480 552 38,000  Level FlightAware ADS-B
Thu 04:41:23 PM 48.9683 -121.2860 300° West 480 552 38,000  Level FlightAware ADS-B
Thu 04:41:44 PM 48.9918 -121.3477 300° West 481 554 38,000  Level FlightAware ADS-B
Thu 04:41:54 PM 49.0025 -121.3760 300° West 480 552 38,000  Level FlightAware ADS-B
Thu 04:42:15 PM 49.0259 -121.4376 300° West 478 550 38,000  Level FlightAware ADS-B
Thu 04:42:24 PM 49.0361 -121.4640 300° West 478 550 38,000  Level FlightAware ADS-B
Thu 04:42:47 PM 49.0613 -121.5312 300° West 472 543 38,000  Level FlightAware ADS-B
Thu 04:42:55 PM 49.0696 -121.5530 300° West 476 548 38,000  Level FlightAware ADS-B
Thu 04:43:25 PM 49.1029 -121.6410 300° West 477 549 38,000  Level FlightAware ADS-B
Thu 04:43:31 PM 49.1093 -121.6584 299° West 478 550 38,000  Level FlightAware ADS-B
Thu 04:43:34 PM 49.1160 -121.6765 300° West 474 545 38,000  Level FlightAware ADS-B
Thu 04:43:57 PM 49.1377 -121.7340 300° West 478 550 38,000  Level FlightAware ADS-B
Thu 04:44:06 PM 49.1486 -121.7634 300° West 473 544 38,000  Level FlightAware ADS-B
Thu 04:44:10 PM 49.1556 -121.7821 300° West 473 544 38,000  Level FlightAware ADS-B
Thu 04:44:20 PM 49.1663 -121.8107 300° West 473 544 38,000  Level FlightAware ADS-B
Thu 04:44:27 PM 49.1709 -121.8230 300° West 477 549 38,000  Level FlightAware ADS-B
Thu 04:44:30 PM 49.1779 -121.8416 300° West 472 543 38,000  Level FlightAware ADS-B
Thu 04:44:40 PM 49.1890 -121.8713 300° West 471 542 38,000  Level FlightAware ADS-B
Thu 04:44:53 PM 49.1987 -121.8974 300° West 472 543 38,000  Level FlightAware ADS-B
Thu 04:45:03 PM 49.2100 -121.9280 299° West 475 547 38,000  Level FlightAware ADS-B
Thu 04:45:27 PM 49.2358 -121.9970 300° West 475 547 38,000  Level FlightAware ADS-B
Thu 04:45:33 PM 49.2428 -122.0160 299° West 476 548 38,000  Level FlightAware ADS-B
Thu 04:45:43 PM 49.2569 -122.0536 300° West 472 543 38,000  Level FlightAware ADS-B
Thu 04:45:53 PM 49.2675 -122.0823 300° West 473 544 38,000  Level FlightAware ADS-B
Thu 04:46:03 PM 49.2788 -122.1128 300° West 473 544 38,000  Level FlightAware ADS-B
Thu 04:46:18 PM 49.2911 -122.1460 300° West 476 548 38,000  Level FlightAware ADS-B
Thu 04:46:33 PM 49.3046 -122.1823 300° West 476 548 38,000  Level FlightAware ADS-B
Thu 04:46:48 PM 49.3235 -122.2340 299° West 475 547 38,000  Level FlightAware ADS-B
Thu 04:47:03 PM 49.3394 -122.2770 300° West 474 545 38,000  Level FlightAware ADS-B
Thu 04:47:24 PM 49.3617 -122.3380 299° West 473 544 38,000  Level FlightAware ADS-B
Thu 04:47:40 PM 49.3798 -122.3871 300° West 472 543 38,000  Level FlightAware ADS-B
Thu 04:47:45 PM 49.3852 -122.4017 299° West 469 540 38,000  Level FlightAware ADS-B
Thu 04:48:03 PM 49.4072 -122.4619 299° West 469 540 38,000  Level FlightAware ADS-B
Thu 04:48:12 PM 49.4170 -122.4888 299° West 469 540 38,000  Level FlightAware ADS-B
Thu 04:48:22 PM 49.4276 -122.5181 299° West 469 540 38,000  Level FlightAware ADS-B
Thu 04:48:32 PM 49.4385 -122.5479 299° West 469 540 38,000  Level FlightAware ADS-B
Thu 04:48:44 PM 49.4472 -122.5720 299° West 473 544 38,000  Level FlightAware ADS-B
Thu 04:49:03 PM 49.4681 -122.6292 299° West 474 545 38,000  Level FlightAware ADS-B
Thu 04:49:15 PM 49.4806 -122.6640 299° West 473 544 38,000  Level FlightAware ADS-B
Thu 04:49:37 PM 49.5021 -122.7232 299° West 475 547 38,000  Level FlightAware ADS-B
Thu 04:49:48 PM 49.5161 -122.7620 299° West 474 545 38,000  Level FlightAware ADS-B
Thu 04:50:09 PM 49.5288 -122.7973 299° West 473 544 38,000  Level FlightAware ADS-B
Thu 04:50:19 PM 49.5479 -122.8500 299° West 474 545 38,000  Level FlightAware ADS-B
Thu 04:50:39 PM 49.5688 -122.9085 299° West 474 545 38,000  Level FlightAware ADS-B
Thu 04:50:49 PM 49.5800 -122.9400 299° West 475 547 38,000  Level FlightAware ADS-B
Thu 04:51:09 PM 49.6042 -123.0072 299° West 475 547 38,000  Level FlightAware ADS-B
Thu 04:51:28 PM 49.6215 -123.0560 299° West 475 547 38,000  Level FlightAware ADS-B
Thu 04:51:41 PM 49.6349 -123.0933 299° West 478 550 38,000  Level FlightAware ADS-B
Thu 04:52:11 PM 49.6664 -123.1817 299° West 480 552 38,000  Level FlightAware ADS-B
Thu 04:52:33 PM 49.6901 -123.2484 299° West 482 555 38,000  Level FlightAware ADS-B
Thu 04:53:03 PM 49.7222 -123.3393 299° West 482 555 38,000  Level FlightAware ADS-B
Thu 04:53:39 PM 49.7603 -123.4476 299° West 479 551 38,000  Level FlightAware ADS-B
Thu 04:54:10 PM 49.7931 -123.5412 299° West 478 550 38,000  Level FlightAware ADS-B
Thu 04:54:41 PM 49.8262 -123.6357 298° West 481 554 38,000  Level FlightAware ADS-B
Thu 04:55:13 PM 49.8569 -123.7238 298° West 479 551 38,000  Level FlightAware ADS-B
Thu 04:55:43 PM 49.8861 -123.8084 298° West 480 552 38,000  Level FlightAware ADS-B
Thu 04:56:13 PM 49.9218 -123.9114 298° West 482 555 38,000  Level FlightAware ADS-B
Thu 04:56:44 PM 49.9585 -124.0179 298° West 483 556 38,000  Level FlightAware ADS-B
Thu 04:57:21 PM 49.9934 -124.1197 298° West 481 554 38,000  Level FlightAware ADS-B
Thu 04:58:02 PM 50.0357 -124.2438 298° West 480 552 38,000  Level FlightAware ADS-B
Thu 04:58:40 PM 50.0517 -124.2906 298° West 480 552 38,000  Level FlightAware ADS-B
Thu 04:59:22 PM 50.0904 -124.4046 298° West 480 552 38,000  Level FlightAware ADS-B
Thu 05:00:16 PM 50.1773 -124.6629 298° West 482 555 38,000  Level FlightAware ADS-B
Thu 05:00:57 PM 50.2226 -124.7870 300° West 478 550 38,000  Level FlightAware ADS-B
Thu 05:01:36 PM 50.2699 -124.9010 303° West 479 551 38,000  Level FlightAware ADS-B
Thu 05:02:06 PM 50.3067 -124.9899 303° West 483 556 38,000  Level FlightAware ADS-B
Thu 05:02:37 PM 50.3442 -125.0807 303° West 484 557 38,000  Level FlightAware ADS-B
Thu 05:03:08 PM 50.3808 -125.1694 303° West 484 557 38,000  Level FlightAware ADS-B
Thu 05:03:46 PM 50.4267 -125.2813 303° West 484 557 38,000  Level FlightAware ADS-B
Thu 05:04:19 PM 50.4666 -125.3792 303° West 483 556 38,000  Level FlightAware ADS-B
Thu 05:04:59 PM 50.5152 -125.4987 303° West 482 555 38,000  Level FlightAware ADS-B
Thu 05:05:38 PM 50.5621 -125.6143 303° West 482 555 38,000  Level FlightAware ADS-B
Thu 05:06:19 PM 50.6101 -125.7330 303° West 483 556 38,000  Level FlightAware ADS-B
Thu 05:06:50 PM 50.6472 -125.8254 302° West 482 555 38,000  Level FlightAware ADS-B
Thu 05:07:23 PM 50.6864 -125.9234 302° West 483 556 38,000  Level FlightAware ADS-B
Thu 05:08:08 PM 50.7400 -126.0583 302° West 486 559 38,000  Level FlightAware ADS-B
Thu 05:09:20 PM 50.8130 -126.2380 303° West 488 562 38,000  Level FlightAware ADS-B
Thu 05:10:20 PM 50.8760 -126.3910 303° West 488 562 38,000  Level FlightAware ADS-B
Thu 05:10:56 PM 50.9140 -126.4830 303° West 488 562 38,000  Level FlightAware ADS-B
Thu 05:11:47 PM 50.9670 -126.6130 303° West 488 562 38,000  Level FlightAware ADS-B
Thu 05:12:47 PM 51.0300 -126.7670 303° West 488 562 38,000  Level FlightAware ADS-B
Thu 05:13:23 PM 51.0670 -126.8590 303° West 488 562 38,000  Level FlightAware ADS-B
Thu 05:14:11 PM 51.1170 -126.9820 303° West 488 562 38,000  Level FlightAware ADS-B
Thu 05:14:49 PM 51.1570 -127.0800 303° West 488 562 38,000  Level FlightAware ADS-B
Thu 05:15:49 PM 51.2200 -127.2340 303° West 488 562 38,000  Level FlightAware ADS-B
Thu 05:16:24 PM 51.2560 -127.3240 303° West 488 562 38,000  Level FlightAware ADS-B
Thu 05:17:00 PM 51.2940 -127.4160 303° West 488 562 38,000  Level FlightAware ADS-B
Thu 05:18:01 PM 51.3580 -127.5730 303° West 488 562 38,000  Level FlightAware ADS-B
Thu 05:18:36 PM 51.4500 -127.9833 303° West 480 552 38,000  Level Vancouver Center
Thu 05:19:36 PM 51.5167 -128.1500 303° West 480 552 38,000  Level Vancouver Center
Thu 05:20:36 PM 51.5833 -128.3333 300° West 480 552 38,000  Level Vancouver Center
Thu 05:21:36 PM 51.6500 -128.5333 298° West 480 552 38,000  Level Vancouver Center
Thu 05:22:36 PM 51.7167 -128.7333 298° West 480 552 38,000  Level Vancouver Center
Thu 05:23:36 PM 51.7833 -128.9000 303° West 480 552 38,000  Level Vancouver Center
Thu 05:24:36 PM 51.8667 -129.0667 309° West 480 552 38,000  Level Vancouver Center
Thu 05:25:36 PM 51.9167 -129.2667 292° West 480 552 38,000  Level Vancouver Center
Thu 05:26:36 PM 52.0000 -129.4667 304° West 480 552 38,000  Level Vancouver Center
Thu 05:27:36 PM 52.0500 -129.6667 292° West 480 552 38,000  Level Vancouver Center
Thu 05:28:36 PM 52.1167 -129.8333 303° West 480 552 38,000  Level Vancouver Center
Thu 05:29:36 PM 52.1833 -130.0333 299° West 480 552 38,000  Level Vancouver Center
Thu 05:30:36 PM 52.2500 -130.2333 299° West 480 552 38,000  Level Vancouver Center
Thu 05:31:36 PM 52.3167 -130.4167 301° West 480 552 38,000  Level Vancouver Center
Thu 05:32:36 PM 52.3833 -130.6167 299° West 480 552 38,000  Level Vancouver Center
Thu 05:33:36 PM 52.4333 -130.7833 296° West 480 552 38,000  Level Vancouver Center
Thu 05:34:36 PM 52.5167 -131.0000 302° West 480 552 38,000  Level Vancouver Center
Thu 05:35:36 PM 52.5667 -131.2000 292° West 480 552 38,000  Level Vancouver Center
Thu 05:36:36 PM 52.6167 -131.3667 296° West 480 552 38,000  Level Vancouver Center
Thu 05:37:36 PM 52.7000 -131.5667 305° West 480 552 38,000  Level Vancouver Center
Thu 05:38:36 PM 52.7500 -131.7833 291° West 480 552 38,000  Level Vancouver Center
Thu 05:39:36 PM 52.8167 -131.9833 299° West 480 552 38,000  Level Vancouver Center
Thu 05:40:36 PM 52.8667 -132.1667 294° West 480 552 38,000  Level Vancouver Center
Thu 05:41:36 PM 52.9333 -132.3667 299° West 480 552 38,000  Level Vancouver Center
Thu 05:42:36 PM 53.0000 -132.5833 297° West 480 552 38,000  Level Vancouver Center
Thu 05:43:36 PM 53.0500 -132.7500 297° West 480 552 38,000  Level Vancouver Center
Thu 05:44:36 PM 53.1167 -132.9667 297° West 480 552 38,000  Level Vancouver Center
Thu 05:45:36 PM 53.1667 -133.1500 295° West 480 552 38,000  Level Vancouver Center
Thu 05:46:36 PM 53.2333 -133.3500 299° West 480 552 38,000  Level Vancouver Center
Thu 05:47:36 PM 53.2833 -133.5667 291° West 480 552 38,000  Level Vancouver Center
Thu 05:48:36 PM 53.3333 -133.7500 295° West 480 552 38,000  Level Vancouver Center
Thu 05:49:36 PM 53.4000 -133.9500 299° West 480 552 38,000  Level Vancouver Center
Thu 05:50:36 PM 53.4500 -134.1333 295° West 480 552 38,000  Level Vancouver Center
Thu 05:51:36 PM 53.5167 -134.3500 297° West 470 541 38,000  Level Vancouver Center
Thu 05:52:36 PM 53.5667 -134.5333 295° West 470 541 38,000  Level Vancouver Center
Thu 05:53:36 PM 53.6167 -134.7500 291° West 470 541 38,000  Level Vancouver Center
Thu 05:54:36 PM 53.6833 -134.9333 302° West 470 541 38,000  Level Vancouver Center
Thu 05:55:36 PM 53.7333 -135.1500 291° West 470 541 38,000  Level Vancouver Center
Thu 05:56:36 PM 53.7833 -135.3500 293° West 470 541 38,000  Level Vancouver Center
Thu 05:57:36 PM 53.8333 -135.5333 295° West 470 541 38,000  Level Vancouver Center
Thu 05:58:36 PM 53.9000 -135.7333 300° West 470 541 38,000  Level Vancouver Center
Thu 05:59:36 PM 53.9500 -135.9500 291° West 470 541 38,000  Level Vancouver Center
Thu 06:00:36 PM 54.0167 -136.1667 298° West 470 541 38,000  Level Vancouver Center
Thu 06:01:36 PM 54.0833 -136.3333 304° West 470 541 38,000  Level Vancouver Center
Thu 06:02:36 PM 54.1333 -136.5500 292° West 470 541 38,000  Level Vancouver Center
Thu 06:03:36 PM 54.1833 -136.7000 300° West 470 541 38,000  Level Vancouver Center
Thu 06:04:36 PM 54.2500 -136.9333 296° West 470 541 38,000  Level Vancouver Center
Thu 06:05:36 PM 54.3167 -137.1167 302° West 470 541 38,000  Level Vancouver Center
Thu 06:06:36 PM 54.3833 -137.3167 300° West 470 541 38,000  Level Vancouver Center
Thu 06:07:36 PM 54.4333 -137.4833 297° West 470 541 38,000  Level Vancouver Center
Thu 06:08:36 PM 54.4833 -137.6667 295° West 470 541 38,000  Level Vancouver Center
Thu 06:09:36 PM 54.5500 -137.8667 300° West 470 541 38,000  Level Vancouver Center
Thu 06:10:36 PM 54.6167 -138.0667 300° West 470 541 38,000  Level Vancouver Center
Thu 06:11:36 PM 54.6667 -138.2667 293° West 470 541 38,000  Level Vancouver Center
Thu 06:12:36 PM 54.7333 -138.4833 298° West 470 541 38,000  Level Vancouver Center
Thu 06:13:36 PM 54.8000 -138.6833 300° West 470 541 38,000  Level Vancouver Center
Thu 06:14:36 PM 54.8500 -138.8833 294° West 470 541 38,000  Level Vancouver Center
Thu 06:15:36 PM 54.9000 -139.0833 294° West 460 529 38,000  Level Vancouver Center
Thu 06:16:36 PM 54.9500 -139.2833 294° West 460 529 38,000  Level Vancouver Center
Thu 06:17:36 PM 55.0167 -139.4833 300° West 460 529 38,000  Level Vancouver Center
Thu 06:18:06 PM 55.0500 -139.5167 330° Northwest 460 529 38,000  Level Anchorage Center
Thu 06:18:36 PM 55.0667 -139.6833 280° West 460 529 38,000  Level Vancouver Center
Thu 06:19:36 PM 55.1333 -139.8833 300° West 470 541 38,000  Level Vancouver Center
Thu 06:20:07 PM 55.1667 -139.9167 330° Northwest 450 518 38,000  Level Anchorage Center
Thu 06:21:07 PM 55.2167 -140.1167 294° West 450 518 38,000  Level Anchorage Center
Thu 06:22:07 PM 55.2833 -140.3167 300° West 460 529 38,000  Level Anchorage Center
Thu 06:23:08 PM 55.3333 -140.5167 294° West 460 529 38,000  Level Anchorage Center
Thu 06:24:08 PM 55.3833 -140.7167 294° West 450 518 38,000  Level Anchorage Center
Thu 06:25:09 PM 55.4333 -140.9167 294° West 430 495 38,000  Level Anchorage Center
Thu 06:26:08 PM 55.4833 -141.1167 294° West 440 506 38,000  Level Anchorage Center
Thu 06:27:09 PM 55.5333 -141.3167 294° West 440 506 38,000  Level Anchorage Center
Thu 06:28:09 PM 55.5833 -141.5167 294° West 440 506 38,000  Level Anchorage Center
Thu 06:29:09 PM 55.6500 -141.7167 301° West 440 506 38,000  Level Anchorage Center
Thu 06:30:10 PM 55.6833 -141.9167 287° West 440 506 38,000  Level Anchorage Center
Thu 06:31:10 PM 55.7500 -142.1333 299° West 440 506 38,000  Level Anchorage Center
Thu 06:32:10 PM 55.8000 -142.3333 294° West 440 506 38,000  Level Anchorage Center
Thu 06:33:11 PM 55.8500 -142.5333 294° West 440 506 38,000  Level Anchorage Center
Thu 06:34:11 PM 55.8833 -142.7167 288° West 430 495 38,000  Level Anchorage Center
Thu 06:35:12 PM 55.9333 -142.9167 294° West 430 495 38,000  Level Anchorage Center
Thu 06:36:12 PM 55.9833 -143.1000 296° West 430 495 38,000  Level Anchorage Center
Thu 06:37:12 PM 56.0333 -143.3167 293° West 430 495 38,000  Level Anchorage Center
Thu 06:38:12 PM 56.0667 -143.5167 287° West 430 495 38,000  Level Anchorage Center
Thu 06:39:13 PM 56.1167 -143.7000 296° West 430 495 38,000  Level Anchorage Center
Thu 06:40:13 PM 56.1667 -143.9167 293° West 430 495 38,000  Level Anchorage Center
Thu 06:41:13 PM 56.2167 -144.1167 294° West 430 495 38,000  Level Anchorage Center
Thu 06:42:14 PM 56.2667 -144.3167 294° West 430 495 38,000  Level Anchorage Center
Thu 06:43:14 PM 56.3000 -144.5167 287° West 430 495 38,000  Level Anchorage Center
Thu 06:44:14 PM 56.3500 -144.7167 294° West 430 495 38,000  Level Anchorage Center
Thu 06:45:15 PM 56.4000 -144.9333 293° West 430 495 38,000  Level Anchorage Center
Thu 06:46:15 PM 56.4333 -145.1333 287° West 440 506 38,000 50 Level Anchorage Center
Thu 06:47:15 PM 56.4833 -145.3333 294° West 430 495 38,100 496 Climbing Anchorage Center
Thu 06:48:16 PM 56.5333 -145.5333 294° West 430 495 39,000 595 Climbing Anchorage Center
Thu 06:49:16 PM 56.5667 -145.7500 286° West 430 495 39,300 496 Climbing Anchorage Center
Thu 06:50:17 PM 56.6167 -145.9500 295° West 440 506 40,000 347 Climbing Anchorage Center
Thu 06:51:17 PM 56.6500 -146.1667 286° West 440 506 40,000  Level Anchorage Center
Thu 06:52:17 PM 56.7000 -146.3833 293° West 440 506 40,000  Level Anchorage Center
Thu 06:53:18 PM 56.7500 -146.5833 295° West 440 506 40,000  Level Anchorage Center
Thu 06:54:17 PM 56.7833 -146.8000 286° West 450 518 40,000  Level Anchorage Center
Thu 06:55:18 PM 56.8333 -147.0333 291° West 450 518 40,000  Level Anchorage Center
Thu 06:56:18 PM 56.8667 -147.2333 287° West 450 518 40,000  Level Anchorage Center
Thu 06:57:19 PM 56.9167 -147.4500 293° West 440 506 40,000  Level Anchorage Center
Thu 06:58:19 PM 56.9500 -147.6667 286° West 440 506 40,000  Level Anchorage Center
Thu 06:59:19 PM 57.0000 -147.8833 293° West 430 495 40,000  Level Anchorage Center
Thu 07:00:20 PM 57.0333 -148.1000 286° West 440 506 40,000  Level Anchorage Center
Thu 07:01:20 PM 57.0667 -148.3167 286° West 450 518 40,000  Level Anchorage Center
Thu 07:02:20 PM 57.1167 -148.5500 292° West 460 529 40,000  Level Anchorage Center
Thu 07:03:21 PM 57.1500 -148.7667 286° West 450 518 40,000  Level Anchorage Center
Thu 07:04:21 PM 57.2000 -148.9833 293° West 450 518 40,000  Level Anchorage Center
Thu 07:05:22 PM 57.2333 -149.2167 285° West 450 518 40,000  Level Anchorage Center
Thu 07:06:22 PM 57.2667 -149.4333 286° West 450 518 40,000  Level Anchorage Center
Thu 07:07:23 PM 57.3167 -149.6667 292° West 450 518 40,000  Level Anchorage Center
Thu 07:08:23 PM 57.3500 -149.8833 286° West 460 529 40,000  Level Anchorage Center
Thu 07:09:23 PM 57.3833 -150.1167 285° West 460 529 40,000  Level Anchorage Center
Thu 07:10:24 PM 57.4333 -150.3500 292° West 460 529 40,000  Level Anchorage Center
Thu 07:11:23 PM 57.4667 -150.5833 285° West 460 529 40,000  Level Anchorage Center
Thu 07:12:24 PM 57.5000 -150.8000 286° West 460 529 40,000  Level Anchorage Center
Thu 07:13:24 PM 57.5500 -151.0500 291° West 470 541 40,000  Level Anchorage Center
Thu 07:14:25 PM 57.5833 -151.2833 285° West 460 529 40,000  Level Anchorage Center
Thu 07:15:25 PM 57.6333 -151.5000 293° West 470 541 40,000  Level Anchorage Center
Thu 07:16:25 PM 57.6667 -151.7333 285° West 460 529 40,000  Level Anchorage Center
Thu 07:17:26 PM 57.7000 -151.9667 285° West 470 541 40,000  Level Anchorage Center
Thu 07:18:26 PM 57.7500 -152.2167 291° West 480 552 40,000  Level Anchorage Center
Thu 07:19:26 PM 57.7833 -152.4500 285° West 470 541 40,000  Level Anchorage Center
Thu 07:20:27 PM 57.7833 -152.7000 270° West 480 552 40,000  Level Anchorage Center
Thu 07:21:27 PM 57.8167 -152.9500 284° West 470 541 40,000  Level Anchorage Center
Thu 07:22:27 PM 57.8167 -153.2000 270° West 480 552 40,000  Level Anchorage Center
Thu 07:23:28 PM 57.8500 -153.4500 284° West 470 541 40,000  Level Anchorage Center
Thu 07:24:28 PM 57.8500 -153.7000 270° West 480 552 40,000  Level Anchorage Center
Thu 07:25:28 PM 57.8667 -153.9500 277° West 480 552 40,000  Level Anchorage Center
Thu 07:26:28 PM 57.8833 -154.2167 277° West 480 552 40,000  Level Anchorage Center
Thu 07:27:29 PM 57.9000 -154.4667 277° West 480 552 40,000  Level Anchorage Center
Thu 07:28:29 PM 57.9167 -154.7167 277° West 490 564 40,000  Level Anchorage Center
Thu 07:29:29 PM 57.9333 -155.0333 276° West 480 552 40,000  Level Anchorage Center
Thu 07:30:30 PM 57.9500 -155.2833 277° West 490 564 40,000  Level Anchorage Center
Thu 07:31:30 PM 57.9500 -155.5500 270° West 490 564 40,000  Level Anchorage Center
Thu 07:32:30 PM 57.9667 -155.8000 277° West 490 564 40,000  Level Anchorage Center
Thu 07:33:31 PM 57.9833 -156.0667 277° West 500 575 40,000  Level Anchorage Center
Thu 07:34:31 PM 58.0000 -156.3333 277° West 500 575 40,000  Level Anchorage Center
Thu 07:35:32 PM 58.0000 -156.6000 270° West 500 575 40,000  Level Anchorage Center
Thu 07:36:32 PM 58.0167 -156.8000 279° West 500 575 40,000  Level Anchorage Center
Thu 07:37:32 PM 58.0167 -157.1167 270° West 490 564 40,000  Level Anchorage Center
Thu 07:38:33 PM 58.0333 -157.3833 277° West 490 564 40,000  Level Anchorage Center
Thu 07:39:33 PM 58.0333 -157.6333 270° West 490 564 40,000  Level Anchorage Center
Thu 07:40:33 PM 58.0500 -157.8500 278° West 490 564 40,000  Level Anchorage Center
Thu 07:41:34 PM 58.0500 -158.1667 270° West 490 564 40,000  Level Anchorage Center
Thu 07:42:34 PM 58.0667 -158.4333 277° West 490 564 40,000  Level Anchorage Center
Thu 07:43:34 PM 58.0667 -158.6833 270° West 490 564 40,000  Level Anchorage Center
Thu 07:45:35 PM 58.0833 -159.2167 274° West 500 575 40,000  Level Anchorage Center
Thu 07:46:35 PM 58.0833 -159.4833 270° West 500 575 40,000  Level Anchorage Center
Thu 07:47:36 PM 58.0833 -159.7333 270° West 480 552 40,000  Level Anchorage Center
Thu 07:48:36 PM 58.1000 -160.0000 277° West 500 575 40,000  Level Anchorage Center
Thu 07:49:37 PM 58.1000 -160.2667 270° West 500 575 40,000  Level Anchorage Center
Thu 07:50:37 PM 58.1000 -160.4667 270° West 490 564 40,000  Level Anchorage Center
Thu 07:51:37 PM 58.1000 -160.8000 270° West 500 575 40,000  Level Anchorage Center
Thu 07:53:38 PM 58.1000 -161.3167 270° West 490 564 40,000  Level Anchorage Center
Thu 07:54:38 PM 58.1000 -161.5333 270° West 490 564 40,000  Level Anchorage Center
Thu 07:55:38 PM 58.1000 -161.8000 270° West 510 587 40,000  Level Anchorage Center
Thu 07:57:39 PM 58.1000 -162.3500 270° West 500 575 40,000  Level Anchorage Center
Thu 07:58:39 PM 58.1000 -162.6500 270° West 490 564 40,000  Level Anchorage Center
Thu 07:59:40 PM 58.1000 -162.8667 270° West 500 575 40,000  Level Anchorage Center
Thu 08:00:40 PM 58.1000 -163.1333 270° West 500 575 40,000  Level Anchorage Center
Thu 08:01:40 PM 58.0833 -163.4000 263° West 500 575 40,000  Level Anchorage Center
Thu 08:02:41 PM 58.0833 -163.6667 270° West 490 564 40,000  Level Anchorage Center
Thu 08:03:48 PM 58.0833 -163.9833 270° West 500 575 40,000  Level Anchorage Center
Thu 08:04:48 PM 58.0833 -164.2500 270° West 500 575 40,000  Level Anchorage Center
Thu 08:05:48 PM 58.0667 -164.5167 263° West 500 575 40,000  Level Anchorage Center
Thu 08:06:48 PM 58.0667 -164.7833 270° West 500 575 40,000  Level Anchorage Center
Thu 08:07:49 PM 58.0500 -165.0500 263° West 510 587 40,000  Level Anchorage Center
Thu 08:08:48 PM 58.0500 -165.3167 270° West 500 575 40,000  Level Anchorage Center
Thu 08:09:48 PM 58.0167 -165.5667 256° West 500 575 40,000  Level Anchorage Center
Thu 08:10:49 PM 58.0000 -165.8333 263° West 500 575 40,000  Level Anchorage Center
Thu 08:11:49 PM 57.9833 -166.1000 263° West 490 564 40,000  Level Anchorage Center
Thu 08:12:49 PM 57.9667 -166.3333 262° West 500 575 40,000  Level Anchorage Center
Thu 08:13:49 PM 57.9333 -166.6000 257° West 500 575 40,000  Level Anchorage Center
Thu 08:14:49 PM 57.9167 -166.8500 263° West 490 564 40,000  Level Anchorage Center
Thu 08:15:49 PM 57.8833 -167.1000 256° West 500 575 40,000  Level Anchorage Center
Thu 08:16:49 PM 57.8667 -167.3667 263° West 500 575 40,000  Level Anchorage Center
Thu 08:17:49 PM 57.8500 -167.6333 263° West 500 575 40,000  Level Anchorage Center
Thu 08:18:49 PM 57.8167 -167.8833 256° West 500 575 40,000  Level Anchorage Center
Thu 08:19:49 PM 57.8000 -168.1500 263° West 490 564 40,000  Level Anchorage Center
Thu 08:20:49 PM 57.7667 -168.4000 256° West 500 575 40,000  Level Anchorage Center
Thu 08:21:49 PM 57.7500 -168.6667 263° West 500 575 40,000  Level Anchorage Center
Thu 08:22:50 PM 57.7167 -168.9333 257° West 500 575 40,000  Level Anchorage Center
Thu 08:23:50 PM 57.7000 -169.1833 263° West 500 575 40,000  Level Anchorage Center
Thu 08:24:50 PM 57.6667 -169.4500 257° West 500 575 40,000  Level Anchorage Center
Thu 08:25:50 PM 57.6333 -169.7000 256° West 510 587 40,000  Level Anchorage Center
Thu 08:26:50 PM 57.6000 -169.9667 257° West 510 587 40,000  Level Anchorage Center
Thu 08:27:50 PM 57.5833 -170.2167 263° West 510 587 40,000  Level Anchorage Center
Thu 08:28:50 PM 57.5500 -170.4667 256° West 510 587 40,000  Level Anchorage Center
Thu 08:29:50 PM 57.5167 -170.7333 257° West 510 587 40,000  Level Anchorage Center
Thu 08:30:50 PM 57.4833 -170.9833 256° West 500 575 40,000  Level Anchorage Center
Thu 08:31:50 PM 57.4500 -171.2500 257° West 510 587 40,000  Level Anchorage Center
Thu 08:32:50 PM 57.4167 -171.5000 256° West 500 575 40,000  Level Anchorage Center
Thu 08:33:50 PM 57.3833 -171.7500 256° West 500 575 40,000  Level Anchorage Center
Thu 08:35:50 PM 57.3167 -172.2667 257° West 510 587 40,000  Level Anchorage Center
Thu 08:36:50 PM 57.2833 -172.5167 256° West 500 575 40,000  Level Anchorage Center
Thu 08:37:51 PM 57.2500 -172.7667 256° West 500 575 40,000  Level Anchorage Center
Thu 08:38:51 PM 57.2167 -173.0167 256° West 500 575 40,000  Level Anchorage Center
Thu 08:39:51 PM 57.1833 -173.2833 257° West 500 575 40,000  Level Anchorage Center
Thu 08:40:51 PM 57.1500 -173.5333 256° West 490 564 40,000  Level Anchorage Center
Thu 08:41:51 PM 57.1167 -173.7833 256° West 500 575 40,000  Level Anchorage Center
Thu 08:42:51 PM 57.0833 -174.0167 255° West 500 575 40,000  Level Anchorage Center
Thu 08:43:51 PM 57.0333 -174.2833 251° West 500 575 40,000  Level Anchorage Center
Thu 08:44:51 PM 57.0000 -174.5167 255° West 500 575 40,000  Level Anchorage Center
Thu 08:45:51 PM 56.9667 -174.7667 256° West 500 575 40,000  Level Anchorage Center
Thu 08:47:00 PM 56.9259 -175.0261 254° West  Level FlightAware Approximate
Thu 08:51:33 PM 56.7333 -176.1833 255° West 494 568 40,000  Level Anchorage Center
Thu 08:52:46 PM 56.7167 -176.3000 253° West 507 583 40,000  Level Anchorage Center
Thu 08:54:00 PM 56.6643 -176.5913 252° West  Level FlightAware Approximate
Thu 08:55:00 PM 56.6240 -176.8123 252° West  Level FlightAware Approximate
Thu 08:56:00 PM 56.5834 -177.0329 252° West  Level FlightAware Approximate
Thu 08:57:00 PM 56.5065 -177.4871 252° West 494 568 40,000  Level FlightAware Transoceanic
Thu 08:58:00 PM 56.4631 -177.7229 251° West 494 568 40,000  Level FlightAware Transoceanic
Thu 08:59:00 PM 56.4128 -177.9924 251° West 507 583 40,000  Level FlightAware Transoceanic
Thu 09:00:00 PM 56.3676 -178.2319 251° West 507 583 40,000  Level FlightAware Transoceanic
Thu 09:01:00 PM 56.3219 -178.4709 251° West 507 583 40,000  Level FlightAware Transoceanic
Thu 09:01:11 PM 56.3167 -178.5000 251° West 505 581 40,000  Level Anchorage Center
Thu 09:02:00 PM 56.2757 -178.7093 251° West 507 583 40,000  Level FlightAware Transoceanic
Thu 09:03:00 PM 56.2290 -178.9471 250° West 507 583 40,000  Level FlightAware Transoceanic
Thu 09:04:00 PM 56.1819 -179.1843 250° West 507 583 40,000  Level FlightAware Transoceanic
Thu 09:05:00 PM 56.1344 -179.4210 250° West 507 583 40,000  Level FlightAware Transoceanic
Thu 09:06:00 PM 56.0864 -179.6570 250° West 507 583 40,000  Level FlightAware Transoceanic
Thu 09:07:00 PM 56.0332 -179.9168 250° West 505 581 40,000  Level FlightAware Transoceanic
Thu 09:08:00 PM 55.9845 179.8492 249° West 505 581 40,000  Level FlightAware Transoceanic
Thu 09:09:00 PM 55.9352 179.6157 249° West 505 581 40,000  Level FlightAware Transoceanic
Thu 09:10:00 PM 55.8855 179.3828 249° West 505 581 40,000  Level FlightAware Transoceanic
Thu 09:10:50 PM 55.8500 179.2333 249° West 505 581 40,000  Level Anchorage Center
Thu 09:11:00 PM 55.8354 179.1505 249° West 505 581 40,000  Level FlightAware Transoceanic
Thu 09:12:00 PM 55.7848 178.9188 249° West 505 581 40,000  Level FlightAware Transoceanic
Thu 09:13:00 PM 55.7338 178.6877 248° West 505 581 40,000  Level FlightAware Transoceanic
Thu 09:14:00 PM 55.6824 178.4572 248° West 505 581 40,000  Level FlightAware Transoceanic
Thu 09:15:00 PM 55.6306 178.2274 248° West 505 581 40,000  Level FlightAware Transoceanic
Thu 09:16:00 PM 55.5783 177.9981 248° West 505 581 40,000  Level FlightAware Transoceanic
Thu 09:17:00 PM 55.5379 177.8342 248° West 505 581 40,000  Level FlightAware Transoceanic
Thu 09:18:00 PM 55.4843 177.6032 248° West 505 581 40,000  Level FlightAware Transoceanic
Thu 09:18:23 PM 55.4500 177.4333 247° West 510 587 40,000  Level Anchorage Center
Thu 09:19:00 PM 55.4303 177.3728 247° West 505 581 40,000  Level FlightAware Transoceanic
Thu 09:19:23 PM 55.4000 177.2500 244° Southwest 500 575 40,000  Level Anchorage Center
Thu 09:20:00 PM 55.3759 177.1431 247° West 505 581 40,000  Level FlightAware Transoceanic
Thu 09:20:23 PM 55.3333 177.0000 245° Southwest 500 575 40,000  Level Anchorage Center
Thu 09:21:00 PM 55.3210 176.9140 247° West 505 581 40,000  Level FlightAware Transoceanic
Thu 09:21:24 PM 55.2833 176.8000 246° West 500 575 40,000  Level Anchorage Center
Thu 09:22:00 PM 55.2658 176.6855 247° West 505 581 40,000  Level FlightAware Transoceanic
Thu 09:22:23 PM 55.2333 176.5500 251° West 500 575 40,000  Level Anchorage Center
Thu 09:23:00 PM 55.2101 176.4576 247° West 505 581 40,000  Level FlightAware Transoceanic
Thu 09:23:24 PM 55.1833 176.3500 246° West 510 587 40,000  Level Anchorage Center
Thu 09:24:23 PM 55.1167 176.1167 244° Southwest 500 575 40,000  Level Anchorage Center
Thu 09:25:24 PM 55.0667 175.8667 251° West 510 587 40,000  Level Anchorage Center
Thu 09:26:24 PM 55.0167 175.6667 247° West 500 575 40,000  Level Anchorage Center
Thu 09:27:24 PM 54.9500 175.4333 244° Southwest 500 575 40,000  Level Anchorage Center
Thu 09:28:24 PM 54.9000 175.2333 247° West 500 575 40,000  Level Anchorage Center
Thu 09:29:24 PM 54.8333 175.0000 244° Southwest 500 575 40,000  Level Anchorage Center
Thu 09:30:24 PM 54.7833 174.8000 247° West 510 587 40,000  Level Anchorage Center
Thu 09:31:24 PM 54.7167 174.5667 244° Southwest 500 575 40,000  Level Anchorage Center
Thu 09:32:24 PM 54.6667 174.3667 247° West 500 575 40,000  Level Anchorage Center
Thu 09:33:24 PM 54.6000 174.1333 244° Southwest 510 587 40,000  Level Anchorage Center
Thu 09:34:24 PM 54.5333 173.9000 244° Southwest 500 575 40,000  Level Anchorage Center
Thu 09:35:24 PM 54.4833 173.7000 247° West 500 575 40,000  Level Anchorage Center
Thu 09:36:24 PM 54.4167 173.4667 244° Southwest 500 575 40,000  Level Anchorage Center
Thu 09:37:24 PM 54.3667 173.2833 245° Southwest 510 587 40,000  Level Anchorage Center
Thu 09:38:24 PM 54.3000 173.0500 244° Southwest 510 587 40,000  Level Anchorage Center
Thu 09:39:25 PM 54.2500 172.8500 247° West 520 598 40,000  Level Anchorage Center
Thu 09:40:25 PM 54.1833 172.6333 242° Southwest 490 564 40,000  Level Anchorage Center
Thu 09:41:25 PM 54.1000 172.4167 237° Southwest 490 564 40,000  Level Anchorage Center
Thu 09:42:25 PM 54.0167 172.2500 230° Southwest 500 575 40,000  Level Anchorage Center
Thu 09:43:25 PM 53.9333 172.0333 237° Southwest 500 575 40,000  Level Anchorage Center
Thu 09:44:25 PM 53.8667 171.8667 236° Southwest 510 587 40,000  Level Anchorage Center
Thu 09:45:25 PM 53.7667 171.6667 230° Southwest 510 587 40,000  Level Anchorage Center
Thu 09:46:25 PM 53.7000 171.5000 236° Southwest 500 575 40,000  Level Anchorage Center
Thu 09:47:25 PM 53.6167 171.2833 237° Southwest 510 587 40,000  Level Anchorage Center
Thu 09:48:26 PM 53.5167 171.0833 230° Southwest 510 587 40,000  Level Anchorage Center
Thu 09:49:26 PM 53.4500 170.9167 236° Southwest 490 564 40,000  Level Anchorage Center
Thu 09:50:26 PM 53.3667 170.7167 235° Southwest 490 564 40,000  Level Anchorage Center
Thu 09:51:26 PM 53.2833 170.5500 230° Southwest 500 575 40,000  Level Anchorage Center
Thu 09:52:26 PM 53.2000 170.3500 235° Southwest 510 587 40,000  Level Anchorage Center
Thu 09:53:26 PM 53.1167 170.1833 230° Southwest 510 587 40,000  Level Anchorage Center
Thu 09:54:26 PM 53.0333 169.9833 235° Southwest 500 575 40,000  Level Anchorage Center
Thu 09:55:26 PM 52.9500 169.7833 235° Southwest 500 575 40,000  Level Anchorage Center
Thu 09:56:26 PM 52.9000 169.6000 246° West 490 564 40,000  Level Anchorage Center
Thu 09:57:26 PM 52.8333 169.3833 243° Southwest 500 575 40,000  Level Anchorage Center
Thu 09:58:26 PM 52.7667 169.2167 237° Southwest 500 575 40,000  Level Anchorage Center
Thu 09:59:26 PM 52.7000 169.0000 243° Southwest 500 575 40,000  Level Anchorage Center
Thu 10:00:26 PM 52.6333 168.8333 237° Southwest 490 564 40,000  Level Anchorage Center
Thu 10:01:27 PM 52.5500 168.6167 238° Southwest 510 587 40,000  Level Anchorage Center
Thu 10:02:26 PM 52.5000 168.4500 244° Southwest 500 575 40,000  Level Anchorage Center
Thu 10:03:26 PM 52.4167 168.2333 238° Southwest 490 564 40,000  Level Anchorage Center
Thu 10:04:26 PM 52.3500 168.0333 241° Southwest 480 552 40,000  Level Anchorage Center
Thu 10:05:26 PM 52.3000 167.8500 246° West 480 552 40,000  Level Anchorage Center
Thu 10:06:27 PM 52.2167 167.6500 236° Southwest 500 575 40,000  Level Anchorage Center
Thu 10:09:00 PM 52.1156 167.3748 239° Southwest  Level FlightAware Approximate
Thu 10:16:00 PM 51.6511 166.1477 239° Southwest  Level FlightAware Approximate
Thu 10:17:00 PM 51.5837 165.9744 238° Southwest  Level FlightAware Approximate
Thu 10:17:56 PM 51.4333 165.5500 238° Southwest 482 555 40,000  Level Anchorage Center
Thu 10:18:00 PM 51.5160 165.8017 238° Southwest  Level FlightAware Approximate
Thu 10:18:20 PM 51.4167 165.5333 238° Southwest 478 550 40,000  Level Anchorage Center
Thu 10:19:00 PM 51.4482 165.6295 238° Southwest  Level FlightAware Approximate
Thu 10:20:00 PM 51.3808 165.4570 238° Southwest  Level FlightAware Approximate
Thu 10:21:00 PM 51.3138 165.2844 238° Southwest  Level FlightAware Approximate
Thu 10:22:00 PM 51.2465 165.1123 238° Southwest  Level FlightAware Approximate
Thu 10:23:00 PM 51.1791 164.9407 238° Southwest  Level FlightAware Approximate
Thu 10:24:00 PM 51.0096 164.5188 237° Southwest 478 550 40,000  Level FlightAware Transoceanic
Thu 10:24:33 PM 50.9500 164.3833 237° Southwest 474 545 40,000  Level Anchorage Center
Thu 10:25:00 PM 50.9409 164.3515 237° Southwest 478 550 40,000  Level FlightAware Transoceanic
Thu 10:26:00 PM 50.8719 164.1846 237° Southwest 478 550 40,000  Level FlightAware Transoceanic
Thu 10:27:00 PM 50.8027 164.0183 237° Southwest 478 550 40,000  Level FlightAware Transoceanic
Thu 10:27:37 PM 50.7333 163.8333 236° Southwest 472 543 40,000  Level Anchorage Center
Thu 10:28:00 PM 50.7333 163.8524 236° Southwest 478 550 40,000  Level FlightAware Transoceanic
Thu 10:29:00 PM 50.6637 163.6871 236° Southwest 478 550 40,000  Level FlightAware Transoceanic
Thu 10:30:00 PM 50.5310 163.3822 236° Southwest 474 545 40,000  Level FlightAware Transoceanic
Thu 10:31:00 PM 50.4604 163.2171 236° Southwest 474 545 40,000  Level FlightAware Transoceanic
Thu 10:32:00 PM 50.3895 163.0524 236° Southwest 474 545 40,000  Level FlightAware Transoceanic
Thu 10:33:00 PM 50.3184 162.8883 236° Southwest 474 545 40,000  Level FlightAware Transoceanic
Thu 10:34:00 PM 50.2408 162.6917 235° Southwest 472 543 40,000  Level FlightAware Transoceanic
Thu 10:35:00 PM 50.1696 162.5306 235° Southwest 472 543 40,000  Level FlightAware Transoceanic
Thu 10:36:00 PM 50.0981 162.3699 235° Southwest 472 543 40,000  Level FlightAware Transoceanic
Thu 10:37:00 PM 50.0264 162.2097 235° Southwest 472 543 40,000  Level FlightAware Transoceanic
Thu 10:37:12 PM 50.0333 162.2333 235° Southwest 465 535 40,000  Level Anchorage Center
Thu 10:38:00 PM 49.9545 162.0500 235° Southwest 472 543 40,000  Level FlightAware Transoceanic
Thu 10:39:00 PM 49.8823 161.8907 235° Southwest 472 543 40,000  Level FlightAware Transoceanic
Thu 10:40:00 PM 49.8100 161.7320 235° Southwest 472 543 40,000  Level FlightAware Transoceanic
Thu 10:41:00 PM 49.7374 161.5737 235° Southwest 472 543 40,000  Level FlightAware Transoceanic
Thu 10:42:00 PM 49.6646 161.4159 234° Southwest 472 543 40,000  Level FlightAware Transoceanic
Thu 10:43:00 PM 49.5957 161.2719 234° Southwest 465 535 40,000  Level FlightAware Transoceanic
Thu 10:44:00 PM 49.5220 161.1133 234° Southwest 465 535 40,000  Level FlightAware Transoceanic
Thu 10:44:34 PM 49.4833 161.0333 234° Southwest 456 525 40,000  Level Anchorage Center
Thu 10:45:00 PM 49.4480 160.9552 234° Southwest 465 535 40,000  Level FlightAware Transoceanic
Thu 10:46:00 PM 49.3739 160.7976 234° Southwest 465 535 40,000  Level FlightAware Transoceanic
Thu 10:46:54 PM 49.3167 160.6833 234° Southwest 442 509 40,000  Level Anchorage Center
Thu 10:47:00 PM 49.2995 160.6405 234° Southwest 465 535 40,000  Level FlightAware Transoceanic
Thu 10:48:00 PM 49.2250 160.4838 234° Southwest 465 535 40,000  Level FlightAware Transoceanic
Thu 10:49:00 PM 49.1502 160.3276 234° Southwest 465 535 40,000  Level FlightAware Transoceanic
Thu 10:50:00 PM 49.0752 160.1719 234° Southwest 465 535 40,000  Level FlightAware Transoceanic
Thu 10:51:00 PM 49.0000 160.0167 233° Southwest 456 525 40,000  Level FlightAware Transoceanic
Thu 10:52:00 PM 48.9314 159.8768 233° Southwest 456 525 40,000  Level FlightAware Transoceanic
Thu 10:53:00 PM 48.8655 159.7430 233° Southwest 442 509 40,000  Level FlightAware Transoceanic
Thu 10:54:00 PM 48.7980 159.6067 233° Southwest 442 509 40,000  Level FlightAware Transoceanic
Thu 10:55:00 PM 48.7304 159.4708 233° Southwest 442 509 40,000  Level FlightAware Transoceanic
Thu 10:56:00 PM 48.6626 159.3352 233° Southwest 442 509 40,000  Level FlightAware Transoceanic
Thu 10:57:00 PM 48.5947 159.2000 233° Southwest 442 509 40,000  Level FlightAware Transoceanic
Thu 10:58:00 PM 48.5265 159.0652 233° Southwest 442 509 40,000  Level FlightAware Transoceanic
Thu 10:59:00 PM 48.4583 158.9307 232° Southwest 442 509 40,000  Level FlightAware Transoceanic
Thu 11:00:00 PM 48.3898 158.7966 232° Southwest 442 509 40,000  Level FlightAware Transoceanic
Thu 11:01:00 PM 48.3213 158.6628 232° Southwest 442 509 40,000  Level FlightAware Transoceanic
Thu 11:02:00 PM 48.2525 158.5294 232° Southwest 442 509 40,000  Level FlightAware Transoceanic
Thu 11:03:00 PM 48.1836 158.3964 232° Southwest 442 509 40,000  Level FlightAware Transoceanic
Thu 11:04:00 PM 48.1146 158.2637 232° Southwest 442 509 40,000  Level FlightAware Transoceanic
Thu 11:05:00 PM 48.0454 158.1314 232° Southwest 442 509 40,000  Level FlightAware Transoceanic
Thu 11:06:00 PM 47.9760 157.9995 232° Southwest 442 509 40,000  Level FlightAware Transoceanic
Thu 11:07:00 PM 47.9065 157.8679 232° Southwest 442 509 40,000  Level FlightAware Transoceanic
Thu 11:08:00 PM 47.8369 157.7366 232° Southwest 442 509 40,000  Level FlightAware Transoceanic
Thu 11:09:00 PM 47.7671 157.6057 232° Southwest 442 509 40,000  Level FlightAware Transoceanic
Thu 11:10:00 PM 47.6971 157.4752 231° Southwest 442 509 40,000  Level FlightAware Transoceanic
Thu 11:11:00 PM 47.6270 157.3450 231° Southwest 442 509 40,000  Level FlightAware Transoceanic
Thu 11:12:00 PM 47.5568 157.2151 231° Southwest 442 509 40,000  Level FlightAware Transoceanic
Thu 11:13:00 PM 47.4864 157.0856 231° Southwest 442 509 40,000  Level FlightAware Transoceanic
Thu 11:14:00 PM 47.4159 156.9565 231° Southwest 442 509 40,000  Level FlightAware Transoceanic
Thu 11:15:00 PM 47.3452 156.8277 231° Southwest 442 509 40,000  Level FlightAware Transoceanic
Thu 11:16:00 PM 47.2744 156.6992 231° Southwest 442 509 40,000  Level FlightAware Transoceanic
Thu 11:17:00 PM 47.2034 156.5711 231° Southwest 442 509 40,000  Level FlightAware Transoceanic
Thu 11:18:00 PM 47.1323 156.4433 231° Southwest 442 509 40,000  Level FlightAware Transoceanic
Thu 11:19:00 PM 47.0611 156.3159 231° Southwest 442 509 40,000  Level FlightAware Transoceanic
Thu 11:20:00 PM 46.9897 156.1888 230° Southwest 442 509 40,000  Level FlightAware Transoceanic
Thu 11:21:00 PM 46.9181 156.0620 230° Southwest 442 509 40,000  Level FlightAware Transoceanic
Thu 11:22:00 PM 46.8465 155.9356 230° Southwest 442 509 40,000  Level FlightAware Transoceanic
Thu 11:23:00 PM 46.7747 155.8095 230° Southwest 442 509 40,000  Level FlightAware Transoceanic
Thu 11:24:00 PM 46.7027 155.6838 230° Southwest 442 509 40,000  Level FlightAware Transoceanic
Thu 11:25:00 PM 46.6306 155.5584 230° Southwest 442 509 40,000  Level FlightAware Transoceanic
Thu 11:26:00 PM 46.5584 155.4333 230° Southwest 442 509 40,000  Level FlightAware Transoceanic
Thu 11:27:00 PM 46.4860 155.3085 230° Southwest 442 509 40,000  Level FlightAware Transoceanic
Thu 11:28:00 PM 46.4135 155.1841 230° Southwest 442 509 40,000  Level FlightAware Transoceanic
Thu 11:29:00 PM 46.3409 155.0600 230° Southwest 442 509 40,000  Level FlightAware Transoceanic
Thu 11:30:00 PM 46.2682 154.9363 230° Southwest 442 509 40,000  Level FlightAware Transoceanic
Thu 11:31:00 PM 46.1953 154.8129 229° Southwest 442 509 40,000  Level FlightAware Transoceanic
Thu 11:32:00 PM 46.1222 154.6898 229° Southwest 442 509 40,000  Level FlightAware Transoceanic
Thu 11:33:00 PM 46.0491 154.5670 229° Southwest 442 509 40,000  Level FlightAware Transoceanic
Thu 11:34:00 PM 45.9758 154.4446 229° Southwest 442 509 40,000  Level FlightAware Transoceanic
Thu 11:35:00 PM 45.9024 154.3224 229° Southwest 442 509 40,000  Level FlightAware Transoceanic
Thu 11:36:00 PM 45.8288 154.2007 229° Southwest 442 509 40,000  Level FlightAware Transoceanic
Thu 11:37:00 PM 45.7551 154.0792 229° Southwest 442 509 40,000  Level FlightAware Transoceanic
Thu 11:38:00 PM 45.6813 153.9580 229° Southwest 442 509 40,000  Level FlightAware Transoceanic
Thu 11:39:00 PM 45.6074 153.8372 229° Southwest 442 509 40,000  Level FlightAware Transoceanic
Thu 11:40:00 PM 45.5155 153.7152 223° Southwest  Level FlightAware Approximate
Thu 11:41:00 PM 45.5065 153.7003 228° Southwest  Level FlightAware Approximate
Thu 11:42:00 PM 45.4231 153.5667 228° Southwest  Level FlightAware Approximate
Thu 11:43:00 PM 45.3396 153.4335 228° Southwest  Level FlightAware Approximate
Thu 11:44:00 PM 45.2559 153.3007 228° Southwest  Level FlightAware Approximate
Thu 11:45:00 PM 45.1720 153.1683 228° Southwest  Level FlightAware Approximate
Thu 11:46:00 PM 45.0880 153.0363 228° Southwest  Level FlightAware Approximate
Thu 11:47:00 PM 45.0038 152.9047 228° Southwest  Level FlightAware Approximate
Thu 11:48:00 PM 44.9195 152.7734 228° Southwest  Level FlightAware Approximate
Thu 11:49:00 PM 44.8350 152.6426 228° Southwest  Level FlightAware Approximate
Thu 11:50:00 PM 44.7504 152.5121 228° Southwest  Level FlightAware Approximate
Thu 11:51:00 PM 44.6657 152.3820 228° Southwest  Level FlightAware Approximate
Thu 11:52:00 PM 44.5808 152.2523 227° Southwest  Level FlightAware Approximate
Thu 11:53:00 PM 44.4957 152.1230 227° Southwest  Level FlightAware Approximate
Thu 11:54:00 PM 44.4105 151.9940 227° Southwest  Level FlightAware Approximate
Thu 11:55:00 PM 44.3252 151.8654 227° Southwest  Level FlightAware Approximate
Thu 11:56:00 PM 44.2397 151.7372 227° Southwest  Level FlightAware Approximate
Thu 11:57:00 PM 44.1541 151.6094 227° Southwest  Level FlightAware Approximate
Thu 11:58:00 PM 44.0683 151.4819 227° Southwest  Level FlightAware Approximate
Thu 11:59:00 PM 43.9824 151.3548 227° Southwest  Level FlightAware Approximate
Fri 12:00:00 AM 43.8963 151.2281 227° Southwest  Level FlightAware Approximate
Fri 12:01:00 AM 43.8101 151.1017 227° Southwest  Level FlightAware Approximate
Fri 12:02:00 AM 43.7238 150.9758 227° Southwest  Level FlightAware Approximate
Fri 12:03:00 AM 43.6373 150.8501 226° Southwest  Level FlightAware Approximate
Fri 12:04:00 AM 43.5507 150.7249 226° Southwest  Level FlightAware Approximate
Fri 12:05:00 AM 43.4640 150.5999 226° Southwest  Level FlightAware Approximate
Fri 12:06:00 AM 43.3771 150.4754 226° Southwest  Level FlightAware Approximate
Fri 12:07:00 AM 43.2901 150.3512 226° Southwest  Level FlightAware Approximate
Fri 12:08:00 AM 43.2029 150.2274 226° Southwest  Level FlightAware Approximate
Fri 12:09:00 AM 43.1157 150.1039 226° Southwest  Level FlightAware Approximate
Fri 12:10:00 AM 43.0283 149.9807 226° Southwest  Level FlightAware Approximate
Fri 12:11:00 AM 42.9407 149.8579 226° Southwest  Level FlightAware Approximate
Fri 12:12:00 AM 42.8530 149.7355 226° Southwest  Level FlightAware Approximate
Fri 12:13:00 AM 42.7652 149.6134 226° Southwest  Level FlightAware Approximate
Fri 12:14:00 AM 42.6773 149.4917 226° Southwest  Level FlightAware Approximate
Fri 12:15:00 AM 42.5892 149.3703 225° Southwest  Level FlightAware Approximate
Fri 12:16:00 AM 42.5015 149.2499 225° Southwest  Level FlightAware Approximate
Fri 12:17:00 AM 42.4137 149.1299 225° Southwest  Level FlightAware Approximate
Fri 12:18:00 AM 42.3258 149.0102 225° Southwest  Level FlightAware Approximate
Fri 12:18:43 AM 42.6280 149.4130 225° Southwest 391 450 40,000  Level FlightAware ADS-B
Fri 12:19:00 AM 42.2378 148.8909 225° Southwest  Level FlightAware Approximate
Fri 12:19:33 AM 42.5650 149.3280 225° Southwest 391 450 40,000  Level FlightAware ADS-B
Fri 12:20:00 AM 42.1496 148.7719 225° Southwest  Level FlightAware Approximate
Fri 12:20:10 AM 42.5250 149.2730 225° Southwest 391 450 40,000  Level FlightAware ADS-B
Fri 12:21:13 AM 42.4330 149.1470 225° Southwest 397 457 40,000  Level FlightAware ADS-B
Fri 12:21:53 AM 42.3800 149.0750 225° Southwest 398 458 40,000  Level FlightAware ADS-B
Fri 12:22:53 AM 42.3000 148.9660 225° Southwest 399 459 40,000  Level FlightAware ADS-B
Fri 12:23:28 AM 42.2550 148.9040 226° Southwest 400 460 40,000  Level FlightAware ADS-B
Fri 12:23:58 AM 42.2140 148.8500 224° Southwest 405 466 40,000  Level FlightAware ADS-B
Fri 12:24:33 AM 42.1670 148.7860 225° Southwest 406 467 40,000  Level FlightAware ADS-B
Fri 12:25:43 AM 42.0760 148.6640 225° Southwest 405 466 40,000  Level FlightAware ADS-B
Fri 12:26:13 AM 42.0340 148.6090 224° Southwest 405 466 40,000  Level FlightAware ADS-B
Fri 12:26:38 AM 42.0020 148.5660 225° Southwest 405 466 40,000  Level FlightAware ADS-B
Fri 12:27:28 AM 41.9350 148.4760 225° Southwest 407 468 40,000  Level FlightAware ADS-B
Fri 12:28:08 AM 41.8810 148.4040 225° Southwest 408 470 40,000  Level FlightAware ADS-B
Fri 12:29:03 AM 41.8070 148.3070 224° Southwest 408 470 40,000  Level FlightAware ADS-B
Fri 12:29:38 AM 41.7600 148.2450 225° Southwest 408 470 40,000  Level FlightAware ADS-B
Fri 12:30:08 AM 41.7190 148.1910 225° Southwest 408 470 40,000  Level FlightAware ADS-B
Fri 12:31:03 AM 41.6450 148.0950 224° Southwest 408 470 40,000  Level FlightAware ADS-B
Fri 12:31:38 AM 41.5970 148.0340 224° Southwest 408 470 40,000  Level FlightAware ADS-B
Fri 12:32:38 AM 41.5150 147.9290 224° Southwest 404 465 40,000  Level FlightAware ADS-B
Fri 12:33:33 AM 41.4410 147.8330 224° Southwest 405 466 40,000  Level FlightAware ADS-B
Fri 12:34:23 AM 41.3720 147.7450 224° Southwest 405 466 40,000  Level FlightAware ADS-B
Fri 12:35:23 AM 41.2910 147.6420 224° Southwest 405 466 40,000  Level FlightAware ADS-B
Fri 12:35:53 AM 41.2480 147.5880 223° Southwest 405 466 40,000  Level FlightAware ADS-B
Fri 12:36:48 AM 41.1720 147.4910 224° Southwest 405 466 40,000  Level FlightAware ADS-B
Fri 12:37:43 AM 41.0960 147.3960 223° Southwest 405 466 40,000  Level FlightAware ADS-B
Fri 12:38:18 AM 41.0490 147.3360 224° Southwest 406 467 40,000  Level FlightAware ADS-B
Fri 12:38:58 AM 40.9930 147.2660 223° Southwest 408 470 40,000  Level FlightAware ADS-B
Fri 12:39:49 AM 40.9230 147.1790 223° Southwest 410 472 40,000  Level FlightAware ADS-B
Fri 12:40:23 AM 40.8750 147.1180 224° Southwest 408 470 40,000  Level FlightAware ADS-B
Fri 12:40:53 AM 40.8320 147.0660 222° Southwest 408 470 40,000  Level FlightAware ADS-B
Fri 12:41:43 AM 40.7620 146.9790 223° Southwest 416 479 40,000  Level FlightAware ADS-B
Fri 12:42:13 AM 40.7200 146.9270 223° Southwest 416 479 40,000  Level FlightAware ADS-B
Fri 12:42:48 AM 40.6710 146.8660 223° Southwest 416 479 40,000  Level FlightAware ADS-B
Fri 12:43:13 AM 40.6380 146.8250 223° Southwest 417 480 40,000  Level FlightAware ADS-B
Fri 12:43:48 AM 40.5880 146.7630 223° Southwest 416 479 40,000  Level FlightAware ADS-B
Fri 12:44:23 AM 40.5410 146.7060 223° Southwest 416 479 40,000  Level FlightAware ADS-B
Fri 12:45:03 AM 40.4820 146.6330 223° Southwest 414 476 40,000  Level FlightAware ADS-B
Fri 12:45:58 AM 40.4070 146.5410 223° Southwest 406 467 40,000  Level FlightAware ADS-B
Fri 12:46:28 AM 40.3640 146.4890 223° Southwest 407 468 40,000  Level FlightAware ADS-B
Fri 12:47:13 AM 40.3020 146.4130 223° Southwest 413 475 40,000  Level FlightAware ADS-B
Fri 12:48:05 AM 40.2310 146.3290 222° Southwest 413 475 40,000  Level FlightAware ADS-B
Fri 12:49:08 AM 40.1390 146.2160 223° Southwest 414 476 40,000  Level FlightAware ADS-B
Fri 12:49:48 AM 40.0830 146.1480 223° Southwest 414 476 40,000  Level FlightAware ADS-B
Fri 12:50:13 AM 40.0480 146.1060 223° Southwest 415 478 40,000  Level FlightAware ADS-B
Fri 12:50:48 AM 39.9990 146.0470 223° Southwest 415 478 40,000  Level FlightAware ADS-B
Fri 12:51:38 AM 39.9280 145.9630 222° Southwest 416 479 40,000  Level FlightAware ADS-B
Fri 12:52:43 AM 39.8350 145.8520 223° Southwest 418 481 40,000  Level FlightAware ADS-B
Fri 12:53:21 AM 39.7890 145.7970 223° Southwest 418 481 40,000  Level FlightAware ADS-B
Fri 12:53:58 AM 39.7440 145.7450 222° Southwest 418 481 40,000  Level FlightAware ADS-B
Fri 12:55:11 AM 39.6550 145.6400 222° Southwest 418 481 40,000  Level FlightAware ADS-B
Fri 12:55:47 AM 39.6110 145.5890 222° Southwest 418 481 40,000  Level FlightAware ADS-B
Fri 12:56:23 AM 39.5670 145.5370 222° Southwest 418 481 40,000  Level FlightAware ADS-B
Fri 12:56:59 AM 39.5230 145.4860 222° Southwest 418 481 40,000  Level FlightAware ADS-B
Fri 12:57:35 AM 39.4790 145.4350 222° Southwest 418 481 40,000  Level FlightAware ADS-B
Fri 12:58:11 AM 39.4350 145.3830 222° Southwest 418 481 40,000  Level FlightAware ADS-B
Fri 12:59:23 AM 39.2760 145.1930 223° Southwest 414 476 40,000  Level FlightAware ADS-B
Fri 12:59:57 AM 39.2350 145.1460 222° Southwest 414 476 40,000  Level FlightAware ADS-B
Fri 01:00:21 AM 39.2060 145.1120 222° Southwest 414 476 40,000  Level FlightAware ADS-B
Fri 01:00:57 AM 39.1250 145.0180 222° Southwest 416 479 40,000  Level FlightAware ADS-B
Fri 01:01:37 AM 39.0730 144.9570 222° Southwest 417 480 40,000  Level FlightAware ADS-B
Fri 01:02:29 AM 39.0100 144.8840 222° Southwest 417 480 40,000  Level FlightAware ADS-B
Fri 01:03:38 AM 38.8810 144.7770 213° Southwest 423 487 40,000  Level FlightAware ADS-B
Fri 01:04:14 AM 38.8330 144.7320 216° Southwest 423 487 40,000  Level FlightAware ADS-B
Fri 01:04:37 AM 38.7780 144.6840 214° Southwest 431 496 40,000  Level FlightAware ADS-B
Fri 01:04:52 AM 38.7580 144.6660 215° Southwest 431 496 40,000  Level FlightAware ADS-B
Fri 01:06:17 AM 38.6140 144.5370 215° Southwest 432 497 40,000  Level FlightAware ADS-B
Fri 01:06:42 AM 38.5740 144.5000 216° Southwest 432 497 40,000  Level FlightAware ADS-B
Fri 01:07:17 AM 38.5200 144.4520 215° Southwest 432 497 40,000  Level FlightAware ADS-B
Fri 01:07:47 AM 38.4670 144.4040 215° Southwest 432 497 40,000  Level FlightAware ADS-B
Fri 01:08:27 AM 38.4070 144.3510 215° Southwest 432 497 40,000  Level FlightAware ADS-B
Fri 01:09:37 AM 38.2870 144.2430 215° Southwest 432 497 40,000  Level FlightAware ADS-B
Fri 01:10:04 AM 38.2460 144.2070 215° Southwest 433 498 40,000  Level FlightAware ADS-B
Fri 01:10:47 AM 38.1720 144.1410 215° Southwest 433 498 40,000  Level FlightAware ADS-B
Fri 01:11:52 AM 38.0650 144.0470 215° Southwest 435 501 40,000  Level FlightAware ADS-B
Fri 01:12:42 AM 37.9820 143.9740 215° Southwest 436 502 40,000  Level FlightAware ADS-B
Fri 01:13:37 AM 37.8970 143.8990 215° Southwest 432 497 40,000  Level FlightAware ADS-B
Fri 01:14:13 AM 37.8330 143.8420 215° Southwest 433 498 40,000  Level FlightAware ADS-B
Fri 01:15:14 AM 37.7320 143.7540 215° Southwest 433 498 40,000  Level FlightAware ADS-B
Fri 01:15:52 AM 37.6680 143.6980 215° Southwest 434 499 40,000  Level FlightAware ADS-B
Fri 01:16:32 AM 37.5980 143.6370 215° Southwest 435 501 40,000  Level FlightAware ADS-B
Fri 01:17:28 AM 37.5060 143.5570 215° Southwest 435 501 40,000  Level FlightAware ADS-B
Fri 01:18:33 AM 37.3950 143.4610 215° Southwest 433 498 40,000  Level FlightAware ADS-B
Fri 01:19:13 AM 37.3280 143.4030 215° Southwest 432 497 40,000  Level FlightAware ADS-B
Fri 01:20:08 AM 37.2360 143.3240 214° Southwest 432 497 40,000  Level FlightAware ADS-B
Fri 01:20:18 AM 37.2220 143.3120 214° Southwest 432 497 40,000  Level FlightAware ADS-B
Fri 01:21:18 AM 37.1210 143.2250 214° Southwest 40,000  Level FlightAware ADS-B
Fri 01:21:53 AM 37.0660 143.1790 214° Southwest 434 499 40,000  Level FlightAware ADS-B
Fri 01:22:33 AM 36.9970 143.1170 216° Southwest 439 505 40,000  Level FlightAware ADS-B
Fri 01:23:38 AM 36.8910 143.0140 218° Southwest 432 497 40,000  Level FlightAware ADS-B
Fri 01:24:08 AM 36.8420 142.9660 218° Southwest 432 497 40,000  Level FlightAware ADS-B
Fri 01:24:39 AM 36.8020 142.9270 218° Southwest 432 497 40,000  Level FlightAware ADS-B
Fri 01:25:48 AM 36.6810 142.8110 218° Southwest 444 511 40,000  Level FlightAware ADS-B
Fri 01:26:28 AM 36.6160 142.7490 217° Southwest 444 511 40,000  Level FlightAware ADS-B
Fri 01:27:08 AM 36.5520 142.6880 217° Southwest 444 511 40,000  Level FlightAware ADS-B
Fri 01:27:48 AM 36.4860 142.6240 218° Southwest 443 510 40,000  Level FlightAware ADS-B
Fri 01:28:18 AM 36.4370 142.5780 217° Southwest 435 501 40,000  Level FlightAware ADS-B
Fri 01:28:53 AM 36.3800 142.5230 218° Southwest 434 499 40,000 -480 Level FlightAware ADS-B
Fri 01:29:33 AM 36.3180 142.4640 217° Southwest 433 498 39,400 -1,120 Descending FlightAware ADS-B
Fri 01:30:08 AM 36.2590 142.4080 217° Southwest 432 497 38,600 -1,846 Descending FlightAware ADS-B
Fri 01:30:38 AM 36.2110 142.3620 218° Southwest 435 501 37,400 -2,533 Descending FlightAware ADS-B
Fri 01:31:38 AM 36.1130 142.2700 217° Southwest 444 511 34,800 -2,686 Descending FlightAware ADS-B
Fri 01:32:23 AM 36.0440 142.2050 217° Southwest 444 511 32,700 -2,800 Descending FlightAware ADS-B
Fri 01:32:53 AM 36.0010 142.1440 229° Southwest 436 502 31,300 -3,323 Descending FlightAware ADS-B
Fri 01:33:28 AM 35.9850 142.0550 257° West 454 522 29,100 -3,360 Descending FlightAware ADS-B
Fri 01:34:08 AM 35.9740 141.9540 262° West 449 517 27,100 -2,800 Descending FlightAware ADS-B
Fri 01:34:43 AM 35.9640 141.8670 262° West 444 511 25,600 -2,625 Descending FlightAware ADS-B
Fri 01:35:28 AM 35.9520 141.7540 263° West 434 499 23,600 -2,800 Descending FlightAware ADS-B
Fri 01:35:58 AM 35.9440 141.6800 262° West 431 496 22,100 -2,813 Descending FlightAware ADS-B
Fri 01:36:32 AM 35.9340 141.5960 262° West 414 476 20,600 -2,743 Descending FlightAware ADS-B
Fri 01:37:08 AM 35.9260 141.5220 262° West 407 468 18,900 -3,041 Descending FlightAware ADS-B
Fri 01:37:45 AM 35.9150 141.4300 262° West 392 451 16,900 -3,031 Descending FlightAware ADS-B
Fri 01:38:45 AM 35.9000 141.3000 262° West 372 428 14,000 -2,739 Descending FlightAware ADS-B
Fri 01:39:17 AM 35.8930 141.2370 262° West 362 417 12,700 -1,917 Descending FlightAware ADS-B
Fri 01:39:57 AM 35.8850 141.1610 263° West 323 372 11,700 -1,371 Descending FlightAware ADS-B
Fri 01:40:27 AM 35.8800 141.1090 263° West 295 339 11,100 -1,125 Descending FlightAware ADS-B
Fri 01:41:17 AM 35.8730 141.0280 264° West 274 315 10,200 -1,125 Descending FlightAware ADS-B
Fri 01:41:47 AM 35.8690 140.9810 264° West 272 313 9,600 -1,200 Descending FlightAware ADS-B
Fri 01:42:17 AM 35.8640 140.9350 262° West 269 310 9,000 -1,200 Descending FlightAware ADS-B
Fri 01:42:57 AM 35.8580 140.8750 263° West 266 306 8,200 -1,091 Descending FlightAware ADS-B
Fri 01:43:23 AM 35.8550 140.8390 264° West 259 298 7,800 -700 Descending FlightAware ADS-B
Fri 01:43:57 AM 35.8530 140.7890 267° West 244 281 7,500 -571 Descending FlightAware ADS-B
Fri 01:44:47 AM 35.8650 140.7240 283° West 227 261 7,000 -800 Descending FlightAware ADS-B
Fri 01:45:27 AM 35.8850 140.6790 299° West 231 266 6,300 -1,130 Descending FlightAware ADS-B
Fri 01:45:56 AM 35.9010 140.6430 299° West 237 273 5,700 -1,179 Descending FlightAware ADS-B
Fri 01:46:23 AM 35.9140 140.6140 299° West 241 277 5,200 -984 Descending FlightAware ADS-B
Fri 01:46:57 AM 35.9330 140.5710 299° West 242 278 4,700 -730 Descending FlightAware ADS-B
Fri 01:47:37 AM 35.9440 140.5190 285° West 225 259 4,300 -375 Descending FlightAware ADS-B
Fri 01:48:17 AM 35.9500 140.4690 278° West 215 247 4,200 -185 Descending FlightAware ADS-B
Fri 01:48:42 AM 35.9540 140.4410 280° West 198 228 4,100 -771 Descending FlightAware ADS-B
Fri 01:49:27 AM 35.9610 140.3900 280° West 202 232 3,300 -918 Descending FlightAware ADS-B
Fri 01:50:07 AM 35.9680 140.3470 281° West 185 213 2,800 -857 Descending FlightAware ADS-B
Fri 01:50:37 AM 35.9550 140.3220 237° Southwest 157 181 2,300 -727 Descending FlightAware ADS-B
Fri 01:51:13 AM 35.9330 140.3070 209° Southwest 150 173 2,000 -273 Descending FlightAware ADS-B
Fri 01:51:43 AM 35.9120 140.3030 189° South 149 171 2,000  Level FlightAware ADS-B
Fri 01:52:29 AM 35.8850 140.3200 153° Southeast 139 160 2,000 -279 Level FlightAware ADS-B
Fri 01:53:09 AM 35.8630 140.3370 148° Southeast 137 158 1,600 -600 Descending FlightAware ADS-B
Fri 01:53:49 AM 35.8420 140.3520 150° Southeast 127 146 1,200 -658 Descending FlightAware ADS-B
Fri 01:54:22 AM 35.8250 140.3640 150° Southeast 131 151 800 -700 Descending FlightAware ADS-B
Fri 01:54:49 AM 35.8100 140.3750 149° Southeast 135 155 500 -393 Descending FlightAware ADS-B
Fri 01:55:23 AM 35.7940 140.3870 149° Southeast 137 158 400 -176 Descending FlightAware ADS-B

Login

Don't have an account? Register now (free) for customized features, flight alerts, and more!